Time;durP1;ratioP1;P1;durP2;ratioP2;P2;SDS_P1;SDS_P2;PMS_P1;PMS_P2;Temp;Humidity;BMP_temperature;BMP_pressure;BME280_temperature;BME280_humidity;BME280_pressure;Samples;Min_cycle;Max_cycle;Signal;HPM_P1;HPM_P2
2024/02/21 00:03:04;;;;;;;9.33;3.87;;;;;;;12.23;49.70;99771.66;6981560;28;20774;-80
2024/02/21 00:06:27;;;;;;;8.23;4.20;;;;;;;12.41;49.41;99789.13;6981229;28;20214;-80
2024/02/21 00:09:48;;;;;;;7.97;4.10;;;;;;;12.24;49.79;99782.28;6979935;28;20250;-79
2024/02/21 00:13:10;;;;;;;9.77;4.03;;;;;;;12.11;49.77;99797.53;6981084;28;20221;-79
2024/02/21 00:16:31;;;;;;;9.53;4.00;;;;;;;12.80;48.22;99778.66;6981971;28;20225;-79
2024/02/21 00:19:53;;;;;;;8.23;4.27;;;;;;;12.88;48.75;99773.13;6980818;28;20312;-79
2024/02/21 00:23:16;;;;;;;10.47;5.10;;;;;;;12.74;49.73;99771.31;6983103;28;20273;-80
2024/02/21 00:26:37;;;;;;;9.67;4.80;;;;;;;12.66;50.27;99770.63;6982029;28;20237;-79
2024/02/21 00:29:59;;;;;;;8.80;4.97;;;;;;;12.56;50.55;99772.84;6980797;28;20234;-79
2024/02/21 00:33:20;;;;;;;11.70;5.30;;;;;;;12.53;50.95;99759.69;6981805;28;20599;-79
2024/02/21 00:36:42;;;;;;;11.07;5.20;;;;;;;11.97;51.79;99750.56;6980917;28;20253;-79
2024/02/21 00:40:06;;;;;;;9.80;4.67;;;;;;;12.42;51.32;99746.66;6980982;28;20229;-79
2024/02/21 00:43:28;;;;;;;10.73;4.60;;;;;;;12.19;51.40;99735.22;6982120;28;20206;-79
2024/02/21 00:46:49;;;;;;;6.87;4.20;;;;;;;12.53;50.75;99747.00;6981802;28;20229;-79
2024/02/21 00:50:11;;;;;;;6.77;4.37;;;;;;;12.47;50.40;99750.50;6980744;28;20326;-80
2024/02/21 00:53:32;;;;;;;9.67;4.43;;;;;;;12.62;49.67;99726.06;6977708;28;20234;-80
2024/02/21 00:56:55;;;;;;;9.17;4.43;;;;;;;12.57;49.82;99728.50;6976808;28;20269;-79
2024/02/21 01:00:17;;;;;;;8.57;4.30;;;;;;;12.81;49.25;99734.31;6976920;28;20231;-80
2024/02/21 01:03:40;;;;;;;10.93;4.07;;;;;;;12.36;48.78;99671.72;6977849;28;20299;-79
2024/02/21 01:07:02;;;;;;;9.03;4.50;;;;;;;12.64;49.75;99710.47;6974796;28;20294;-80
2024/02/21 01:10:23;;;;;;;9.93;4.20;;;;;;;12.49;49.41;99717.81;6974419;28;20323;-80
2024/02/21 01:13:46;;;;;;;6.47;4.33;;;;;;;12.56;49.47;99710.63;6972164;28;20218;-80
2024/02/21 01:17:08;;;;;;;11.10;4.30;;;;;;;12.03;50.46;99717.38;6974331;28;20851;-80
2024/02/21 01:20:29;;;;;;;8.10;4.30;;;;;;;11.98;51.08;99706.31;6973976;28;20237;-79
2024/02/21 01:23:51;;;;;;;9.60;5.40;;;;;;;12.37;49.84;99701.28;6971211;28;20221;-80
2024/02/21 01:27:12;;;;;;;9.33;4.27;;;;;;;12.37;50.38;99692.31;6974380;28;20388;-79
2024/02/21 01:30:35;;;;;;;9.93;4.60;;;;;;;12.36;50.42;99691.50;6973783;28;20290;-80
2024/02/21 01:33:57;;;;;;;12.20;3.90;;;;;;;12.34;49.98;99676.50;6973165;28;20238;-80
2024/02/21 01:37:19;;;;;;;8.07;4.60;;;;;;;12.10;50.27;99685.03;6973723;28;20226;-80
2024/02/21 01:40:40;;;;;;;9.43;4.83;;;;;;;12.05;51.83;99672.06;6972917;28;20688;-80
2024/02/21 01:44:02;;;;;;;9.67;4.43;;;;;;;11.90;52.23;99675.84;6972960;28;20267;-79
2024/02/21 01:47:25;;;;;;;9.90;4.73;;;;;;;11.60;52.83;99669.75;6972854;28;20316;-80
2024/02/21 01:50:47;;;;;;;11.63;4.00;;;;;;;11.84;51.55;99646.91;6973132;28;20722;-81
2024/02/21 01:54:08;;;;;;;8.30;4.80;;;;;;;12.04;50.31;99629.84;6972952;28;20300;-79
2024/02/21 01:57:30;;;;;;;7.60;4.37;;;;;;;12.12;50.21;99643.25;6971998;28;20330;-80
2024/02/21 02:00:52;;;;;;;9.40;5.07;;;;;;;12.43;49.20;99632.03;6972823;28;20335;-80
2024/02/21 02:04:14;;;;;;;5.87;3.90;;;;;;;12.68;48.30;99631.41;6981913;28;20307;-79
2024/02/21 02:07:36;;;;;;;8.47;4.10;;;;;;;11.95;50.04;99635.59;6981408;28;20313;-80
2024/02/21 02:10:57;;;;;;;12.17;5.47;;;;;;;11.76;50.71;99628.94;6982363;28;20229;-79
2024/02/21 02:14:19;;;;;;;9.80;4.20;;;;;;;11.98;50.30;99619.81;6981997;28;20206;-79
2024/02/21 02:17:41;;;;;;;5.20;3.83;;;;;;;11.92;50.43;99614.38;6981817;28;20742;-79
2024/02/21 02:21:04;;;;;;;10.33;4.47;;;;;;;12.05;50.31;99625.28;6958628;28;20341;-79
2024/02/21 02:24:27;;;;;;;10.73;4.13;;;;;;;12.37;49.61;99616.59;6956180;28;20731;-79
2024/02/21 02:27:49;;;;;;;6.00;4.30;;;;;;;12.45;49.30;99611.06;6955043;28;20246;-79
2024/02/21 02:31:11;;;;;;;8.80;4.20;;;;;;;12.50;48.92;99603.16;6956015;28;20332;-80
2024/02/21 02:34:32;;;;;;;10.77;4.80;;;;;;;11.94;50.00;99586.13;6955859;28;20214;-79
2024/02/21 02:37:54;;;;;;;9.73;4.73;;;;;;;12.05;50.18;99585.56;6954219;28;20300;-80
2024/02/21 02:41:17;;;;;;;9.57;4.70;;;;;;;12.13;49.97;99593.56;6955117;28;20587;-79
2024/02/21 02:44:38;;;;;;;9.73;4.37;;;;;;;12.29;49.56;99593.28;6956238;28;20234;-80
2024/02/21 02:48:00;;;;;;;8.77;4.30;;;;;;;11.97;49.89;99584.88;6954631;28;20250;-79
2024/02/21 02:51:22;;;;;;;16.87;5.50;;;;;;;11.73;50.50;99567.22;6955988;28;20708;-78
2024/02/21 02:54:43;;;;;;;6.53;4.40;;;;;;;11.58;51.14;99579.09;6955561;28;20211;-78
2024/02/21 02:58:06;;;;;;;7.70;4.50;;;;;;;11.97;50.74;99557.84;6954572;28;20226;-79
2024/02/21 03:01:27;;;;;;;8.60;4.37;;;;;;;11.40;51.96;99570.59;6957010;28;20236;-79
2024/02/21 03:04:49;;;;;;;5.30;4.23;;;;;;;11.64;51.31;99562.16;6956117;28;20217;-78
2024/02/21 03:08:10;;;;;;;7.40;4.43;;;;;;;11.45;51.73;99547.38;6955838;28;20273;-78
2024/02/21 03:11:32;;;;;;;6.93;3.90;;;;;;;11.29;52.58;99536.84;6971346;28;20256;-79
2024/02/21 03:14:55;;;;;;;12.07;4.27;;;;;;;11.61;52.39;99527.41;6966513;28;20279;-80
2024/02/21 03:18:16;;;;;;;6.47;4.17;;;;;;;12.05;51.46;99528.00;6965156;28;20235;-78
2024/02/21 03:21:38;;;;;;;8.20;4.07;;;;;;;12.32;50.95;99519.00;6947719;28;20237;-79
2024/02/21 03:24:59;;;;;;;8.90;3.70;;;;;;;12.56;50.02;99515.84;6946585;28;20301;-79
2024/02/21 03:28:21;;;;;;;13.20;4.57;;;;;;;12.09;50.45;99518.47;6946390;28;20377;-80
2024/02/21 03:31:44;;;;;;;5.57;3.73;;;;;;;11.50;52.46;99501.72;6946077;28;20700;-80
2024/02/21 03:35:06;;;;;;;6.97;3.80;;;;;;;11.72;52.30;99545.78;6946020;28;20218;-80
2024/02/21 03:38:27;;;;;;;7.00;4.60;;;;;;;11.64;53.50;99551.34;6945548;28;20313;-80
2024/02/21 03:41:49;;;;;;;8.13;3.97;;;;;;;11.44;53.16;99537.59;6946295;28;20694;-80
2024/02/21 03:45:10;;;;;;;9.80;4.00;;;;;;;11.83;51.21;99538.00;6945778;28;20353;-80
2024/02/21 03:48:33;;;;;;;7.20;3.70;;;;;;;12.30;50.87;99534.59;6945508;28;20429;-79
2024/02/21 03:51:55;;;;;;;11.77;5.27;;;;;;;12.22;50.68;99478.81;6945587;28;20317;-79
2024/02/21 03:55:16;;;;;;;10.50;4.37;;;;;;;12.47;50.26;99522.44;6946184;28;20301;-80
2024/02/21 03:58:38;;;;;;;6.33;4.37;;;;;;;12.17;51.10;99518.31;6946044;28;20329;-80
2024/02/21 04:02:00;;;;;;;6.13;4.17;;;;;;;12.30;50.89;99512.97;6947853;28;20207;-79
2024/02/21 04:05:23;;;;;;;5.97;3.80;;;;;;;12.39;51.07;99515.31;6946780;28;20211;-79
2024/02/21 04:08:46;;;;;;;6.93;4.03;;;;;;;12.50;50.75;99505.78;6945713;28;20719;-80
2024/02/21 04:12:09;;;;;;;9.50;4.33;;;;;;;11.77;52.37;99487.47;6947182;28;20392;-80
2024/02/21 04:15:31;;;;;;;8.00;3.80;;;;;;;12.28;51.33;99501.53;6945971;28;20249;-80
2024/02/21 04:18:52;;;;;;;8.70;4.17;;;;;;;12.44;50.63;99501.19;6945847;28;20875;-80
2024/02/21 04:22:15;;;;;;;7.70;4.00;;;;;;;12.09;50.67;99492.25;6947386;28;20290;-80
2024/02/21 04:25:37;;;;;;;6.97;4.23;;;;;;;12.14;50.73;99488.94;6945950;28;20774;-79
2024/02/21 04:28:58;;;;;;;9.73;4.00;;;;;;;11.89;51.13;99471.53;6946692;28;20322;-80
2024/02/21 04:32:20;;;;;;;9.33;3.53;;;;;;;12.18;49.86;99455.94;6946046;28;20265;-79
2024/02/21 04:35:41;;;;;;;8.93;4.20;;;;;;;12.12;50.34;99454.03;6942944;28;20297;-78
2024/02/21 04:39:04;;;;;;;11.43;3.67;;;;;;;11.96;50.39;99451.63;6942264;28;20313;-78
2024/02/21 04:42:25;;;;;;;6.63;3.97;;;;;;;11.96;51.20;99461.59;6942721;28;20301;-77
2024/02/21 04:45:47;;;;;;;8.03;4.57;;;;;;;11.99;51.07;99469.31;6942736;28;20282;-79
2024/02/21 04:49:10;;;;;;;11.73;3.87;;;;;;;12.18;50.60;99466.75;6941610;28;20314;-80
2024/02/21 04:52:31;;;;;;;8.40;4.20;;;;;;;12.23;50.50;99460.72;6942502;28;20250;-78
2024/02/21 04:55:54;;;;;;;7.20;4.10;;;;;;;12.32;49.71;99440.59;6942317;28;20305;-79
2024/02/21 04:59:16;;;;;;;5.37;3.63;;;;;;;12.05;50.57;99445.03;6941650;28;20789;-78
2024/02/21 05:02:37;;;;;;;11.43;3.67;;;;;;;11.25;52.89;99449.16;6942608;28;20293;-78
2024/02/21 05:06:00;;;;;;;13.47;4.63;;;;;;;11.54;52.63;99469.75;6942478;28;20780;-78
2024/02/21 05:09:22;;;;;;;7.57;4.90;;;;;;;11.43;52.92;99478.38;6941389;28;20313;-79
2024/02/21 05:12:44;;;;;;;10.00;4.40;;;;;;;11.57;52.60;99485.59;6941601;28;20235;-78
2024/02/21 05:16:06;;;;;;;6.47;3.97;;;;;;;11.48;53.28;99475.94;6941747;28;20297;-78
2024/02/21 05:19:28;;;;;;;8.10;4.90;;;;;;;11.56;52.67;99468.53;6940781;28;20714;-78
2024/02/21 05:22:49;;;;;;;14.73;5.10;;;;;;;11.18;53.02;99482.50;6941320;28;20345;-78
2024/02/21 05:26:11;;;;;;;7.73;4.70;;;;;;;11.24;52.68;99443.94;6940234;28;20280;-80
2024/02/21 05:29:34;;;;;;;10.27;5.27;;;;;;;10.72;54.13;99465.84;6940533;28;20369;-78
2024/02/21 05:32:56;;;;;;;7.40;5.00;;;;;;;10.55;54.68;99458.16;6940925;28;20365;-78
2024/02/21 05:36:17;;;;;;;6.07;4.43;;;;;;;10.82;54.18;99435.84;6966091;28;20720;-78
2024/02/21 05:39:39;;;;;;;9.53;4.70;;;;;;;10.84;53.75;99434.63;6967970;28;20317;-78
2024/02/21 05:43:00;;;;;;;8.33;4.10;;;;;;;10.25;53.83;99408.84;6968876;28;20811;-77
2024/02/21 05:46:23;;;;;;;8.47;5.03;;;;;;;10.32;55.03;99444.81;6968572;28;20210;-78
2024/02/21 05:49:45;;;;;;;7.47;4.90;;;;;;;10.27;54.63;99419.44;6968058;28;20226;-77
2024/02/21 05:53:07;;;;;;;6.93;4.47;;;;;;;10.44;54.63;99431.66;6968955;28;20323;-77
2024/02/21 05:56:29;;;;;;;7.33;4.40;;;;;;;10.07;54.73;99421.03;6972529;28;20297;-80
2024/02/21 05:59:50;;;;;;;13.33;6.33;;;;;;;10.20;54.61;99419.34;6973105;28;20704;-80
2024/02/21 06:03:13;;;;;;;5.63;4.27;;;;;;;10.39;53.96;99396.38;6974719;28;20291;-80
2024/02/21 06:06:35;;;;;;;9.90;4.20;;;;;;;10.61;53.60;99409.69;6974904;28;20607;-80
2024/02/21 06:09:56;;;;;;;9.07;4.53;;;;;;;10.49;53.22;99394.19;6973086;28;20356;-79
2024/02/21 06:13:18;;;;;;;10.97;4.07;;;;;;;10.23;54.14;99386.66;6972769;28;20253;-79
2024/02/21 06:16:39;;;;;;;9.07;4.20;;;;;;;10.07;59.42;99407.56;6972438;28;20237;-79
2024/02/21 06:20:02;;;;;;;8.60;4.10;;;;;;;10.80;54.14;99411.75;6972437;28;20361;-80
2024/02/21 06:23:23;;;;;;;8.93;3.80;;;;;;;10.46;53.54;99416.97;6977834;28;20278;-80
2024/02/21 06:26:45;;;;;;;11.30;4.07;;;;;;;10.96;51.96;99410.69;6980859;28;20210;-79
2024/02/21 06:30:09;;;;;;;10.63;4.13;;;;;;;10.82;52.38;99411.59;6974340;28;20230;-79
2024/02/21 06:33:30;;;;;;;7.33;4.67;;;;;;;10.65;53.16;99410.16;6948139;28;20308;-79
2024/02/21 06:36:53;;;;;;;8.43;4.10;;;;;;;10.39;53.63;99418.75;6948082;28;20345;-79
2024/02/21 06:40:15;;;;;;;7.50;4.60;;;;;;;10.33;53.94;99416.00;6945303;28;20290;-78
2024/02/21 06:43:36;;;;;;;10.83;4.87;;;;;;;10.27;54.49;99425.66;6946648;28;20207;-80
2024/02/21 06:46:58;;;;;;;11.10;5.37;;;;;;;10.46;54.35;99425.06;6949856;28;20231;-78
2024/02/21 06:50:20;;;;;;;7.80;4.83;;;;;;;10.55;52.95;99423.09;6958538;28;20293;-80
2024/02/21 06:53:43;;;;;;;7.97;4.60;;;;;;;10.63;52.51;99423.81;6952161;28;20357;-78
2024/02/21 06:57:05;;;;;;;11.77;5.33;;;;;;;10.52;52.90;99410.00;6952138;28;20214;-79
2024/02/21 07:00:27;;;;;;;18.53;5.17;;;;;;;10.36;53.40;99399.44;6969185;28;20240;-78
2024/02/21 07:03:48;;;;;;;12.97;5.17;;;;;;;10.61;53.14;99393.53;6978300;28;20339;-79
2024/02/21 07:07:09;;;;;;;7.97;4.33;;;;;;;10.59;52.91;99397.44;6977457;28;20300;-78
2024/02/21 07:10:32;;;;;;;10.83;5.40;;;;;;;10.39;53.69;99412.56;6976121;28;20234;-80
2024/02/21 07:13:54;;;;;;;6.73;5.10;;;;;;;10.10;53.93;99405.34;6977330;28;20376;-78
2024/02/21 07:17:15;;;;;;;10.07;6.27;;;;;;;9.57;56.57;99405.56;6977810;28;20315;-77
2024/02/21 07:20:37;;;;;;;10.73;5.17;;;;;;;10.05;55.14;99402.34;6976285;28;20297;-76
2024/02/21 07:23:58;;;;;;;9.37;5.20;;;;;;;9.85;54.44;99392.31;6971111;28;20265;-77
2024/02/21 07:27:21;;;;;;;8.40;5.43;;;;;;;9.39;57.97;99377.38;6962196;28;20223;-78
2024/02/21 07:30:43;;;;;;;10.67;5.80;;;;;;;10.07;54.68;99295.25;6960069;28;20288;-77
2024/02/21 07:34:04;;;;;;;6.80;5.03;;;;;;;10.83;53.39;99387.13;6978047;28;20237;-79
2024/02/21 07:37:28;;;;;;;8.67;5.20;;;;;;;11.71;51.49;99388.28;6973561;28;20229;-78
2024/02/21 07:40:51;;;;;;;11.00;5.10;;;;;;;12.04;49.78;99364.16;6975584;28;20216;-77
2024/02/21 07:44:13;;;;;;;10.27;4.50;;;;;;;12.52;49.32;99380.13;6975878;28;20364;-79
2024/02/21 07:47:35;;;;;;;9.17;4.20;;;;;;;12.77;48.39;99381.25;6974161;28;20242;-79
2024/02/21 07:50:56;;;;;;;7.13;3.50;;;;;;;13.15;47.32;99370.72;6971930;28;20303;-77
2024/02/21 07:54:18;;;;;;;5.73;3.93;;;;;;;13.56;46.87;99357.75;6972165;28;20227;-79
2024/02/21 07:57:39;;;;;;;6.00;4.00;;;;;;;13.73;47.02;99330.03;6970129;28;20330;-80
2024/02/21 08:01:02;;;;;;;9.10;4.67;;;;;;;14.08;45.28;99341.38;6974656;28;20666;-80
2024/02/21 08:04:31;;;;;;;9.93;4.20;;;;;;;13.52;45.49;99230.03;6972870;28;20209;-80
2024/02/21 08:07:53;;;;;;;11.50;4.90;;;;;;;13.87;44.41;99322.69;6969409;28;20224;-79
2024/02/21 08:11:14;;;;;;;8.83;4.00;;;;;;;13.88;43.88;99306.22;6971721;28;20294;-80
2024/02/21 08:14:36;;;;;;;6.83;4.00;;;;;;;14.20;44.01;99332.41;6970636;28;20942;-80
2024/02/21 08:18:01;;;;;;;10.70;4.03;;;;;;;14.67;42.82;99325.66;6969907;28;20225;-80
2024/02/21 08:21:22;;;;;;;7.93;3.77;;;;;;;14.83;42.57;99331.41;6958610;28;20243;-79
2024/02/21 08:24:44;;;;;;;6.13;3.87;;;;;;;15.34;42.00;99321.19;6958135;28;20624;-79
2024/02/21 08:28:06;;;;;;;8.00;4.20;;;;;;;15.66;41.17;99325.50;6969467;28;20319;-78
2024/02/21 08:31:31;;;;;;;9.63;4.57;;;;;;;16.06;40.20;99307.69;6963713;28;20567;-79
2024/02/21 08:34:53;;;;;;;6.53;3.07;;;;;;;14.89;41.11;99316.13;6947070;28;20214;-80
2024/02/21 08:38:15;;;;;;;5.07;2.63;;;;;;;16.28;38.07;99297.16;6948845;28;20444;-80
2024/02/21 08:41:37;;;;;;;5.03;2.90;;;;;;;16.02;39.53;99237.63;6948655;28;20207;-80
2024/02/21 08:44:58;;;;;;;10.13;3.00;;;;;;;16.83;38.55;99288.63;6947879;28;20555;-80
2024/02/21 08:48:20;;;;;;;11.43;3.27;;;;;;;16.47;38.86;99307.81;6950625;28;20356;-79
2024/02/21 08:51:43;;;;;;;4.43;3.03;;;;;;;14.93;41.68;99311.91;6953055;28;20236;-80
2024/02/21 08:55:05;;;;;;;7.27;3.40;;;;;;;14.39;43.18;99292.66;6946395;28;20219;-78
2024/02/21 08:58:30;;;;;;;7.83;3.00;;;;;;;13.98;44.31;99293.03;6944947;28;20728;-80
2024/02/21 09:01:53;;;;;;;6.53;3.23;;;;;;;14.89;40.58;99248.25;6943969;28;20206;-80
2024/02/21 09:05:14;;;;;;;5.20;2.70;;;;;;;15.87;40.13;99283.44;6965487;28;20215;-78
2024/02/21 09:08:37;;;;;;;9.23;3.00;;;;;;;15.89;38.89;99265.00;6974390;28;20773;-79
2024/02/21 09:12:05;;;;;;;4.03;2.33;;;;;;;15.48;39.48;99253.97;6972713;28;20222;-79
2024/02/21 09:15:27;;;;;;;6.30;2.70;;;;;;;15.47;38.84;99258.59;6969593;28;20290;-78
2024/02/21 09:18:48;;;;;;;6.90;3.20;;;;;;;14.97;40.61;99261.53;6968555;28;20291;-79
2024/02/21 09:22:10;;;;;;;6.93;3.03;;;;;;;14.72;41.30;99244.41;6967163;28;20196;-78
2024/02/21 09:25:32;;;;;;;5.63;2.97;;;;;;;14.23;41.56;99250.59;6961740;28;20346;-78
2024/02/21 09:28:54;;;;;;;6.53;2.80;;;;;;;14.82;40.80;99253.72;6941921;28;20444;-79
2024/02/21 09:32:15;;;;;;;5.13;2.60;;;;;;;14.99;40.56;99256.72;6961876;28;20452;-78
2024/02/21 09:35:37;;;;;;;7.37;3.80;;;;;;;14.93;40.20;99244.84;6972728;28;20257;-81
2024/02/21 09:38:59;;;;;;;7.50;3.10;;;;;;;15.12;40.51;99249.31;6969591;28;20254;-79
2024/02/21 09:42:22;;;;;;;8.10;2.80;;;;;;;15.70;39.39;99244.31;6968031;28;20352;-80
2024/02/21 09:45:47;;;;;;;4.83;2.47;;;;;;;15.87;39.03;99242.66;6968368;28;20214;-79
2024/02/21 09:49:17;;;;;;;5.73;2.87;;;;;;;15.95;39.00;99234.16;6967868;28;20222;-80
2024/02/21 09:52:38;;;;;;;6.97;2.80;;;;;;;15.97;39.07;99229.31;6968342;28;20296;-80
2024/02/21 09:56:00;;;;;;;4.70;3.03;;;;;;;16.09;38.43;99238.38;6967710;28;20207;-79
2024/02/21 09:59:24;;;;;;;8.47;3.37;;;;;;;16.10;39.05;99229.97;6966747;28;20383;-80
2024/02/21 10:02:45;;;;;;;6.47;3.70;;;;;;;15.98;39.56;99228.28;6967500;28;20212;-78
2024/02/21 10:06:07;;;;;;;5.83;2.93;;;;;;;16.19;39.25;99225.91;6964904;28;20346;-80
2024/02/21 10:09:29;;;;;;;5.40;3.03;;;;;;;16.09;39.67;99217.44;6958467;28;20314;-79
2024/02/21 10:12:54;;;;;;;5.40;3.37;;;;;;;15.48;40.39;99203.19;6974820;28;20592;-78
2024/02/21 10:16:17;;;;;;;6.53;3.10;;;;;;;15.88;40.06;99217.13;6968929;28;20191;-79
2024/02/21 10:19:39;;;;;;;4.83;3.03;;;;;;;16.25;38.44;99211.38;6968364;28;20231;-79
2024/02/21 10:23:07;;;;;;;9.47;3.20;;;;;;;16.27;38.91;99198.34;6969616;28;20237;-82
2024/02/21 10:26:29;;;;;;;6.00;3.10;;;;;;;15.40;40.28;99206.19;6972186;28;20310;-79
2024/02/21 10:29:51;;;;;;;6.73;3.27;;;;;;;15.87;40.00;99188.28;6974399;28;20277;-77
2024/02/21 10:33:20;;;;;;;5.70;3.33;;;;;;;16.52;39.18;99184.63;6978735;28;20230;-79
2024/02/21 10:36:42;;;;;;;5.70;3.17;;;;;;;16.87;37.77;99144.63;6976361;28;20249;-80
2024/02/21 10:40:05;;;;;;;8.07;2.80;;;;;;;17.36;36.64;99174.94;6976506;28;20289;-82
2024/02/21 10:43:27;;;;;;;5.43;2.93;;;;;;;17.53;36.62;99148.63;6976340;28;20645;-80
2024/02/21 10:46:49;;;;;;;6.27;2.93;;;;;;;17.50;36.60;99159.16;6976324;28;20292;-80
2024/02/21 10:50:13;;;;;;;5.10;2.60;;;;;;;17.69;34.96;99153.28;6975195;28;20347;-78
2024/02/21 10:53:40;;;;;;;6.43;2.93;;;;;;;17.35;35.68;99150.63;6960031;28;20226;-79
2024/02/21 10:57:04;;;;;;;3.97;2.63;;;;;;;17.39;35.97;99140.94;6950188;28;20214;-79
2024/02/21 11:00:30;;;;;;;9.27;3.23;;;;;;;17.23;35.60;99134.28;6956096;28;20614;-81
2024/02/21 11:03:58;;;;;;;5.23;2.40;;;;;;;17.21;34.68;99098.28;6978273;28;20217;-81
2024/02/21 11:07:21;;;;;;;5.97;2.90;;;;;;;16.79;35.07;99088.63;6978715;28;20229;-80
2024/02/21 11:10:47;;;;;;;4.67;2.43;;;;;;;17.37;35.09;99113.03;6977985;28;20667;-78
2024/02/21 11:14:09;;;;;;;4.90;2.60;;;;;;;17.55;34.75;99100.13;6951714;28;20898;-77
2024/02/21 11:17:30;;;;;;;4.77;2.73;;;;;;;17.10;35.60;99066.44;6951826;28;20215;-78
2024/02/21 11:20:52;;;;;;;4.90;2.40;;;;;;;17.78;34.21;99069.19;6981518;28;20298;-78
2024/02/21 11:24:15;;;;;;;3.03;2.50;;;;;;;18.18;33.25;99072.63;6986472;28;20257;-78
2024/02/21 11:27:36;;;;;;;5.07;2.67;;;;;;;18.18;33.02;99057.09;6971793;28;20518;-82
2024/02/21 11:31:07;;;;;;;4.87;2.47;;;;;;;18.00;33.29;99054.59;6961052;28;20724;-79
2024/02/21 11:34:29;;;;;;;6.23;2.83;;;;;;;17.94;33.95;99036.50;6944075;28;20708;-79
2024/02/21 11:37:51;;;;;;;5.10;2.10;;;;;;;18.12;33.48;99039.00;6971238;28;20251;-79
2024/02/21 11:41:14;;;;;;;6.80;2.80;;;;;;;18.10;32.93;99032.94;6971213;28;20359;-77
2024/02/21 11:44:37;;;;;;;5.00;2.43;;;;;;;18.44;32.67;99015.50;6971105;28;20331;-78
2024/02/21 11:48:00;;;;;;;5.70;2.50;;;;;;;18.04;33.17;99024.94;6970785;28;20261;-80
2024/02/21 11:51:23;;;;;;;6.67;2.70;;;;;;;17.60;34.64;99012.13;6973792;28;20240;-80
2024/02/21 11:54:44;;;;;;;7.53;3.23;;;;;;;17.96;33.64;98996.13;6970377;28;20715;-78
2024/02/21 11:58:07;;;;;;;5.70;3.70;;;;;;;18.08;32.76;98972.31;6969430;28;20273;-79
2024/02/21 12:01:28;;;;;;;5.90;2.77;;;;;;;18.25;32.55;98996.88;6970627;28;20678;-77
2024/02/21 12:04:51;;;;;;;4.63;2.53;;;;;;;18.47;31.43;98987.72;6972057;28;20375;-78
2024/02/21 12:08:13;;;;;;;5.80;2.60;;;;;;;18.48;32.94;98972.97;6973009;28;20317;-79
2024/02/21 12:11:34;;;;;;;4.53;2.17;;;;;;;18.53;31.93;98969.47;6974035;28;20315;-80
2024/02/21 12:14:58;;;;;;;5.77;2.40;;;;;;;18.31;33.39;98976.75;6975546;28;20367;-78
2024/02/21 12:18:20;;;;;;;3.43;2.17;;;;;;;18.23;33.22;98955.38;6972550;28;20233;-77
2024/02/21 12:21:42;;;;;;;6.97;2.47;;;;;;;18.39;32.72;98933.50;6970043;28;20615;-79
2024/02/21 12:25:07;;;;;;;5.60;2.40;;;;;;;18.15;32.30;98945.69;6969697;28;20351;-79
2024/02/21 12:28:29;;;;;;;5.07;2.50;;;;;;;18.49;32.71;98941.03;6969892;28;20727;-80
2024/02/21 12:31:53;;;;;;;5.37;2.53;;;;;;;18.51;32.26;98934.22;6973234;28;20217;-79
2024/02/21 12:35:18;;;;;;;3.23;2.27;;;;;;;17.98;32.28;98924.97;6974219;28;20250;-80
2024/02/21 12:38:40;;;;;;;5.83;3.20;;;;;;;18.19;32.57;98916.00;6968880;28;20244;-77
2024/02/21 12:42:01;;;;;;;4.47;2.00;;;;;;;18.19;30.96;98916.81;6964570;28;20291;-77
2024/02/21 12:45:23;;;;;;;3.07;2.20;;;;;;;18.29;31.86;98900.56;6968977;28;20341;-78
2024/02/21 12:48:46;;;;;;;5.43;2.33;;;;;;;18.48;32.43;98890.22;6968554;28;20701;-80
2024/02/21 12:52:07;;;;;;;7.57;1.87;;;;;;;18.69;30.93;98878.47;6971237;28;20287;-78
2024/02/21 12:55:29;;;;;;;5.23;2.13;;;;;;;18.50;31.04;98869.78;6972659;28;20260;-77
2024/02/21 12:58:53;;;;;;;4.60;2.17;;;;;;;18.30;30.71;98877.69;6968637;28;20236;-77
2024/02/21 13:02:15;;;;;;;3.17;2.00;;;;;;;18.55;30.96;98861.66;6970941;28;20352;-79
2024/02/21 13:05:38;;;;;;;3.80;2.20;;;;;;;18.84;30.12;98863.09;6969503;28;20202;-78
2024/02/21 13:09:03;;;;;;;3.40;1.90;;;;;;;18.87;29.37;98843.44;6964589;28;20299;-80
2024/02/21 13:12:25;;;;;;;2.90;1.93;;;;;;;18.91;29.94;98838.28;6941829;28;20265;-79
2024/02/21 13:15:47;;;;;;;2.93;2.00;;;;;;;18.57;29.81;98828.63;6944278;28;20233;-79
2024/02/21 13:19:09;;;;;;;3.17;1.70;;;;;;;19.11;29.07;98824.84;6960287;28;20313;-79
2024/02/21 13:22:32;;;;;;;2.80;1.83;;;;;;;18.72;29.38;98809.66;6968530;28;20224;-79
2024/02/21 13:25:54;;;;;;;2.00;1.70;;;;;;;18.55;28.13;98806.19;6970683;28;20278;-79
2024/02/21 13:29:15;;;;;;;4.63;2.10;;;;;;;19.05;28.45;98795.81;6972550;28;20308;-80
2024/02/21 13:32:37;;;;;;;2.70;1.90;;;;;;;19.24;27.84;98788.91;6969997;28;20682;-78
2024/02/21 13:35:59;;;;;;;2.30;1.53;;;;;;;19.18;28.25;98792.66;6968341;28;20344;-78
2024/02/21 13:39:22;;;;;;;4.10;2.10;;;;;;;19.08;28.60;98765.22;6967568;28;20261;-78
2024/02/21 13:42:44;;;;;;;2.70;2.10;;;;;;;18.79;28.60;98777.50;6968500;28;20217;-78
2024/02/21 13:46:09;;;;;;;3.90;2.20;;;;;;;18.65;28.58;98760.72;6968182;28;20213;-78
2024/02/21 13:49:34;;;;;;;3.53;2.43;;;;;;;18.85;27.68;98765.53;6965516;28;20226;-78
2024/02/21 13:52:55;;;;;;;4.27;1.97;;;;;;;18.80;28.38;98751.88;6968804;28;20201;-78
2024/02/21 13:56:18;;;;;;;3.13;2.00;;;;;;;19.24;27.30;98743.25;6968464;28;20244;-79
2024/02/21 13:59:42;;;;;;;2.37;1.87;;;;;;;18.00;29.05;98745.47;6967372;28;20234;-79
2024/02/21 14:03:04;;;;;;;3.03;1.50;;;;;;;18.35;27.49;98741.25;6972961;28;20711;-80
2024/02/21 14:06:27;;;;;;;5.17;1.83;;;;;;;18.46;28.63;98736.75;6970820;28;20284;-78
2024/02/21 14:09:49;;;;;;;2.90;1.70;;;;;;;18.58;28.50;98726.50;6969606;28;20240;-80
2024/02/21 14:13:11;;;;;;;3.13;1.90;;;;;;;18.81;27.64;98724.25;6968061;28;20326;-80
2024/02/21 14:16:33;;;;;;;2.30;1.83;;;;;;;18.39;29.20;98695.19;6967227;28;20256;-79
2024/02/21 14:19:54;;;;;;;1.70;1.60;;;;;;;19.07;29.23;98712.47;6967074;28;20223;-80
2024/02/21 14:23:16;;;;;;;4.40;2.00;;;;;;;18.41;29.35;98715.66;6965776;28;20309;-79
2024/02/21 14:26:37;;;;;;;2.47;1.80;;;;;;;19.03;29.08;98713.25;6967310;28;20352;-79
2024/02/21 14:30:02;;;;;;;3.47;1.93;;;;;;;19.20;29.10;98708.47;6966970;28;20444;-78
2024/02/21 14:33:24;;;;;;;3.07;1.90;;;;;;;19.14;29.76;98696.69;6967664;28;20226;-79
2024/02/21 14:36:45;;;;;;;5.13;2.17;;;;;;;19.01;30.01;98690.81;6965969;28;20252;-80
2024/02/21 14:40:08;;;;;;;2.63;2.03;;;;;;;19.21;29.09;98700.03;6966851;28;20276;-80
2024/02/21 14:43:30;;;;;;;3.63;2.17;;;;;;;19.05;29.08;98702.91;6965431;28;20198;-80
2024/02/21 14:46:52;;;;;;;4.37;2.33;;;;;;;19.21;29.75;98686.38;6967037;28;21011;-79
2024/02/21 14:50:15;;;;;;;3.37;2.00;;;;;;;18.96;30.21;98690.78;6966751;28;20344;-79
2024/02/21 14:53:36;;;;;;;3.77;2.00;;;;;;;19.42;28.43;98690.88;6967298;28;20226;-79
2024/02/21 14:56:58;;;;;;;3.13;2.30;;;;;;;19.01;29.12;98678.00;6966845;28;20686;-78
2024/02/21 15:00:21;;;;;;;2.33;1.87;;;;;;;18.68;29.31;98628.25;6964513;28;20286;-79
2024/02/21 15:03:44;;;;;;;3.60;2.37;;;;;;;19.25;29.09;98670.25;6966885;28;20210;-80
2024/02/21 15:07:06;;;;;;;2.50;1.87;;;;;;;19.45;28.83;98656.72;6966805;28;20210;-80
2024/02/21 15:10:27;;;;;;;3.40;1.87;;;;;;;19.34;29.50;98644.09;6969657;28;20710;-79
2024/02/21 15:13:49;;;;;;;2.73;2.40;;;;;;;19.17;30.45;98646.13;6972416;28;20723;-81
2024/02/21 15:17:11;;;;;;;3.63;2.13;;;;;;;18.88;30.33;98620.25;6978357;28;20291;-80
2024/02/21 15:20:34;;;;;;;2.90;2.03;;;;;;;19.10;30.78;98642.81;6975804;28;20245;-81
2024/02/21 15:23:55;;;;;;;7.23;2.40;;;;;;;19.11;30.96;98634.31;6973311;28;20730;-81
2024/02/21 15:27:17;;;;;;;4.70;2.20;;;;;;;19.15;30.89;98624.53;6982943;28;20735;-79
2024/02/21 15:30:38;;;;;;;2.57;2.00;;;;;;;19.00;31.53;98623.59;6971134;28;20295;-80
2024/02/21 15:34:00;;;;;;;3.97;2.33;;;;;;;18.80;31.69;98590.69;6971293;28;20655;-81
2024/02/21 15:37:25;;;;;;;3.57;2.33;;;;;;;18.99;31.82;98600.09;6968891;28;20354;-79
2024/02/21 15:40:46;;;;;;;4.87;2.40;;;;;;;18.82;32.07;98602.19;6970261;28;20232;-80
2024/02/21 15:44:08;;;;;;;4.57;2.43;;;;;;;18.89;32.46;98595.41;6971232;28;20248;-79
2024/02/21 15:47:29;;;;;;;4.60;2.17;;;;;;;18.82;33.12;98574.84;6970816;28;20803;-79
2024/02/21 15:50:51;;;;;;;7.20;2.50;;;;;;;18.34;33.62;98555.94;6970185;28;20240;-80